Time;durP1;ratioP1;P1;durP2;ratioP2;P2;SDS_P1;SDS_P2;PMS_P1;PMS_P2;Temp;Humidity;BMP_temperature;BMP_pressure;BME280_temperature;BME280_humidity;BME280_pressure;Samples;Min_cycle;Max_cycle;Signal;HPM_P1;HPM_P2
2022/02/04 00:24:48;;;;;;;36.25;24.45;;;;;;;8.63;77.79;99338.78;5091471;28;20769;-60
2022/02/04 00:27:19;;;;;;;38.58;23.02;;;;;;;8.65;77.89;99344.78;5091646;28;20044;-61
2022/02/04 00:32:18;;;;;;;34.20;23.95;;;;;;;8.68;77.92;99334.09;5091577;28;20055;-60
2022/02/04 00:34:51;;;;;;;36.00;24.77;;;;;;;8.68;77.80;99321.00;5091131;28;20055;-60
2022/02/04 00:37:27;;;;;;;40.47;24.52;;;;;;;8.68;77.60;99328.03;5091281;28;20731;-60
2022/02/04 00:40:00;;;;;;;40.00;25.13;;;;;;;8.67;77.60;99314.06;5091085;28;20044;-60
2022/02/04 00:42:28;;;;;;;34.83;24.33;;;;;;;8.67;77.69;99314.06;5091097;28;20447;-60
2022/02/04 00:45:10;;;;;;;37.95;26.15;;;;;;;8.66;77.78;99320.25;5089832;28;20051;-60
2022/02/04 00:48:08;;;;;;;36.33;24.80;;;;;;;8.66;77.63;99324.63;5091565;28;20140;-60
2022/02/04 00:50:50;;;;;;;36.60;23.50;;;;;;;8.67;77.70;99321.09;5091059;28;20105;-62
2022/02/04 00:53:27;;;;;;;33.30;22.98;;;;;;;8.67;77.95;99327.16;5091011;28;20169;-60
2022/02/04 01:26:10;;;;;;;39.67;26.00;;;;;;;8.66;77.70;99309.75;5089996;28;20043;-60
2022/02/04 01:28:40;;;;;;;37.65;23.88;;;;;;;8.66;77.67;99293.16;5090725;28;20040;-60
2022/02/04 01:31:08;;;;;;;37.22;24.75;;;;;;;8.67;77.50;99295.69;5089043;28;20075;-60
2022/02/04 01:33:35;;;;;;;39.10;25.63;;;;;;;8.66;77.43;99288.75;5090605;28;20109;-60
2022/02/04 01:36:03;;;;;;;36.53;25.25;;;;;;;8.67;77.63;99300.09;5088786;28;20599;-60
2022/02/04 01:38:30;;;;;;;37.10;25.13;;;;;;;8.67;77.77;99295.69;5089371;28;20074;-60
2022/02/04 01:40:58;;;;;;;37.25;25.10;;;;;;;8.66;77.28;99301.00;5090277;28;20534;-60
2022/02/04 01:43:25;;;;;;;37.35;25.02;;;;;;;8.65;77.56;99281.81;5089289;28;20070;-59
2022/02/04 01:45:55;;;;;;;36.25;25.55;;;;;;;8.65;77.38;99291.47;5090086;28;20060;-61
2022/02/04 01:48:21;;;;;;;33.05;24.02;;;;;;;8.65;77.65;99287.06;5090549;28;20117;-59
2022/02/04 01:50:50;;;;;;;38.30;25.60;;;;;;;8.64;77.50;99282.75;5090472;28;20083;-60
2022/02/04 01:53:20;;;;;;;33.33;23.92;;;;;;;8.62;77.29;99287.22;5090434;28;20074;-60
2022/02/04 01:55:49;;;;;;;34.42;23.75;;;;;;;8.64;77.37;99287.16;5088951;28;20482;-60
2022/02/04 01:58:16;;;;;;;33.78;23.85;;;;;;;8.64;77.66;99293.25;5088722;28;20101;-60
2022/02/04 02:00:42;;;;;;;33.05;23.55;;;;;;;8.65;77.73;99284.44;5089755;28;20491;-60
2022/02/04 02:03:09;;;;;;;32.03;23.58;;;;;;;8.66;77.82;99282.66;5090173;28;20454;-59
2022/02/04 02:05:36;;;;;;;34.90;23.77;;;;;;;8.66;77.55;99278.25;5089068;28;20044;-62
2022/02/04 02:08:08;;;;;;;36.60;24.27;;;;;;;8.66;77.55;99286.13;5090386;28;20117;-59
2022/02/04 02:10:35;;;;;;;36.92;25.23;;;;;;;8.68;77.51;99283.44;5090135;28;20078;-61
2022/02/04 02:43:21;;;;;;;34.42;25.02;;;;;;;8.65;77.65;99245.09;5093720;28;20048;-60
2022/02/04 02:53:36;;;;;;;33.42;23.65;;;;;;;8.66;77.52;99230.19;5093491;28;20051;-60
2022/02/04 02:58:48;;;;;;;33.35;22.92;;;;;;;8.67;77.36;99234.50;5093060;28;20048;-60
2022/02/04 03:01:15;;;;;;;33.72;23.92;;;;;;;8.67;77.38;99235.34;5093204;28;20052;-60
2022/02/04 03:03:44;;;;;;;33.03;23.40;;;;;;;8.68;77.70;99233.56;5091916;28;20113;-60
2022/02/04 03:06:10;;;;;;;33.78;23.67;;;;;;;8.67;77.36;99226.63;5092919;28;20044;-59
2022/02/04 03:08:37;;;;;;;30.40;22.17;;;;;;;8.67;77.67;99222.22;5093032;28;20097;-60
2022/02/04 03:11:03;;;;;;;34.97;24.20;;;;;;;8.67;77.48;99227.47;5092739;28;20097;-62
2022/02/04 03:13:31;;;;;;;35.47;23.00;;;;;;;8.68;77.61;99228.31;5092773;28;20059;-61
2022/02/04 03:16:05;;;;;;;31.48;22.90;;;;;;;8.67;77.47;99235.34;5092710;28;20125;-60
2022/02/04 03:18:35;;;;;;;31.48;22.30;;;;;;;8.69;77.17;99235.25;5091545;28;20105;-59
2022/02/04 03:21:09;;;;;;;31.70;22.83;;;;;;;8.68;77.61;99231.78;5092738;28;20048;-59
2022/02/04 03:23:38;;;;;;;31.70;22.20;;;;;;;8.70;77.44;99236.94;5092741;28;20052;-60
2022/02/04 03:26:15;;;;;;;31.63;22.92;;;;;;;8.69;77.44;99223.00;5092647;28;20052;-59
2022/02/04 03:28:42;;;;;;;30.55;22.60;;;;;;;8.70;77.56;99232.53;5092898;28;20500;-60
2022/02/04 03:31:09;;;;;;;29.95;21.83;;;;;;;8.70;77.73;99227.28;5091282;28;20048;-60
2022/02/04 03:33:36;;;;;;;32.35;22.60;;;;;;;8.71;77.64;99236.84;5092749;28;20052;-59
2022/02/04 03:36:03;;;;;;;31.23;22.88;;;;;;;8.72;77.64;99243.78;5092157;28;20044;-60
2022/02/04 03:38:30;;;;;;;27.50;20.67;;;;;;;8.73;77.63;99252.50;5092759;28;20482;-59
2022/02/04 03:40:56;;;;;;;31.95;21.63;;;;;;;8.73;77.19;99231.53;5092195;28;20044;-61
2022/02/04 03:43:24;;;;;;;30.30;21.15;;;;;;;8.72;77.50;99238.53;5092523;28;20130;-61
2022/02/04 03:45:50;;;;;;;34.03;22.08;;;;;;;8.73;77.37;99232.38;5092230;28;20120;-61
2022/02/04 03:48:18;;;;;;;33.80;22.33;;;;;;;8.73;77.33;99227.13;5091769;28;20050;-60
2022/02/04 03:50:44;;;;;;;29.52;20.85;;;;;;;8.74;77.44;99230.56;5091905;28;20573;-62
2022/02/04 03:53:15;;;;;;;29.55;21.50;;;;;;;8.72;76.73;99222.78;5092227;28;20044;-61
2022/02/04 03:55:43;;;;;;;29.92;21.55;;;;;;;8.75;77.25;99220.94;5091834;28;20074;-59
2022/02/04 03:58:12;;;;;;;30.42;21.00;;;;;;;8.73;76.93;99215.78;5090714;28;20056;-60
2022/02/04 04:00:40;;;;;;;31.77;21.63;;;;;;;8.75;77.16;99213.06;5091793;28;20048;-60
2022/02/04 04:03:07;;;;;;;29.88;21.83;;;;;;;8.76;77.13;99222.63;5090911;28;20052;-58
2022/02/04 04:05:37;;;;;;;30.00;20.90;;;;;;;8.73;77.26;99221.88;5091740;28;20552;-60
2022/02/04 04:08:04;;;;;;;30.65;20.95;;;;;;;8.73;77.23;99227.13;5092134;28;20044;-59
2022/02/04 04:10:38;;;;;;;28.80;21.05;;;;;;;8.75;77.28;99223.56;5091924;28;20052;-62
2022/02/04 04:13:05;;;;;;;34.15;22.58;;;;;;;8.76;77.31;99222.63;5091770;28;20043;-60
2022/02/04 04:15:32;;;;;;;28.15;20.05;;;;;;;8.77;77.59;99226.94;5091386;28;20492;-59
2022/02/04 04:17:58;;;;;;;31.10;21.48;;;;;;;8.77;77.32;99212.03;5091390;28;20481;-60
2022/02/04 04:20:27;;;;;;;33.15;23.23;;;;;;;8.75;77.15;99210.44;5091301;28;20523;-60
2022/02/04 04:22:55;;;;;;;32.13;21.88;;;;;;;8.77;77.16;99206.78;5091579;28;20599;-60
2022/02/04 04:25:22;;;;;;;32.25;22.02;;;;;;;8.78;77.46;99202.41;5090099;28;20047;-60
2022/02/04 04:27:53;;;;;;;27.10;20.02;;;;;;;8.78;77.20;99207.66;5091630;28;20075;-59
2022/02/04 04:30:23;;;;;;;33.03;22.55;;;;;;;8.80;77.26;99208.38;5089913;28;20048;-61
2022/02/04 04:32:52;;;;;;;28.33;21.23;;;;;;;8.78;77.35;99203.22;5090235;28;20040;-62
2022/02/04 04:35:19;;;;;;;31.60;21.92;;;;;;;8.81;77.50;99207.44;5091352;28;20048;-60
2022/02/04 04:37:51;;;;;;;31.02;22.23;;;;;;;8.80;77.47;99206.63;5089918;28;20048;-60
2022/02/04 05:26:00;;;;;;;29.60;19.92;;;;;;;8.79;77.04;99183.09;5091049;28;20047;-60
2022/02/04 05:26:46;;;;;;;26.88;17.70;;;;;;;8.83;76.96;99168.84;5090238;28;20097;-59
2022/02/04 05:29:15;;;;;;;26.40;18.45;;;;;;;8.84;77.14;99165.28;5090469;28;20113;-61
2022/02/04 05:31:42;;;;;;;28.35;17.73;;;;;;;8.86;77.18;99166.06;5090622;28;20105;-60
2022/02/04 05:34:10;;;;;;;25.60;18.25;;;;;;;8.86;77.08;99174.75;5072631;28;20052;-61
2022/02/04 05:36:42;;;;;;;25.85;17.73;;;;;;;8.86;77.04;99156.38;5090150;28;20415;-60
2022/02/04 05:39:11;;;;;;;29.23;18.50;;;;;;;8.88;76.97;99158.91;5090396;28;20052;-60
2022/02/04 05:41:41;;;;;;;24.88;18.30;;;;;;;8.88;76.65;99151.03;5090737;28;20454;-59
2022/02/04 05:44:11;;;;;;;24.38;17.52;;;;;;;8.89;76.76;99157.97;5090544;28;20093;-61
2022/02/04 05:46:49;;;;;;;24.02;17.85;;;;;;;8.89;76.96;99157.97;5090468;28;20052;-59
2022/02/04 05:49:19;;;;;;;24.05;16.70;;;;;;;8.90;76.78;99159.66;5090307;28;20052;-60
2022/02/04 05:51:57;;;;;;;24.10;17.15;;;;;;;8.91;76.85;99153.50;5090399;28;20052;-59
2022/02/04 05:54:42;;;;;;;24.10;16.45;;;;;;;8.91;76.77;99150.88;5090618;28;20109;-60
2022/02/04 06:04:53;;;;;;;22.65;16.20;;;;;;;8.92;76.74;99134.19;5090319;28;20109;-61
2022/02/04 06:07:33;;;;;;;23.42;16.15;;;;;;;8.93;76.55;99141.09;5070228;28;20098;-62
2022/02/04 06:22:08;;;;;;;23.63;16.95;;;;;;;8.95;76.33;99131.38;5093675;28;20048;-59
2022/02/04 06:23:14;;;;;;;21.40;14.93;;;;;;;8.95;76.59;99131.38;5093520;28;20048;-61
2022/02/04 06:25:43;;;;;;;24.60;16.48;;;;;;;8.94;76.22;99126.22;5094180;28;20044;-59
2022/02/04 06:28:10;;;;;;;19.92;15.15;;;;;;;8.92;76.39;99131.56;5093897;28;20403;-59
2022/02/04 06:30:39;;;;;;;21.65;15.90;;;;;;;8.90;76.47;99129.97;5092153;28;20052;-59
2022/02/04 06:33:05;;;;;;;22.33;16.17;;;;;;;8.89;76.66;99125.66;5093981;28;20136;-59
2022/02/04 06:35:34;;;;;;;29.67;17.30;;;;;;;8.85;76.70;99117.97;5093181;28;20512;-62
2022/02/04 06:38:02;;;;;;;21.45;16.05;;;;;;;8.84;76.75;99124.16;5092439;28;20044;-60
2022/02/04 06:40:29;;;;;;;25.83;16.98;;;;;;;8.83;76.95;99124.25;5093310;28;20056;-61
2022/02/04 06:42:56;;;;;;;20.58;15.13;;;;;;;8.84;76.88;99128.53;5091975;28;20081;-59
2022/02/04 06:45:22;;;;;;;23.35;15.95;;;;;;;8.82;76.81;99123.38;5093327;28;20048;-60
2022/02/04 06:47:49;;;;;;;18.52;14.85;;;;;;;8.84;77.12;99118.03;5093253;28;20052;-60
2022/02/04 06:50:16;;;;;;;23.70;16.08;;;;;;;8.84;76.89;99113.66;5093437;28;20044;-60
2022/02/04 06:52:43;;;;;;;21.45;15.32;;;;;;;8.85;77.14;99112.72;5091051;28;20644;-60
2022/02/04 06:55:11;;;;;;;20.33;15.30;;;;;;;8.87;76.96;99102.13;5092219;28;20078;-60
2022/02/04 06:57:45;;;;;;;18.75;14.32;;;;;;;8.89;76.97;99112.53;5091983;28;20526;-61
2022/02/04 07:00:12;;;;;;;19.95;14.30;;;;;;;8.90;77.13;99115.03;5091360;28;20450;-60
2022/02/04 07:02:39;;;;;;;18.30;14.07;;;;;;;8.91;76.61;99119.38;5092755;28;20048;-61
2022/02/04 07:05:11;;;;;;;22.35;14.00;;;;;;;8.93;76.53;99127.16;5091886;28;20139;-62
2022/02/04 07:07:40;;;;;;;18.10;13.25;;;;;;;8.94;76.93;99108.66;5092080;28;20051;-60
2022/02/04 07:10:19;;;;;;;16.27;13.75;;;;;;;8.95;76.70;99110.38;5091624;28;20512;-59
2022/02/04 07:13:05;;;;;;;17.70;13.35;;;;;;;8.97;76.29;99105.03;5093016;28;20420;-60
2022/02/04 07:15:50;;;;;;;17.50;13.43;;;;;;;8.98;76.27;99112.78;5092605;28;20446;-60
2022/02/04 07:21:18;;;;;;;17.42;13.50;;;;;;;9.01;76.08;99126.69;5069767;28;20048;-59
2022/02/04 07:23:45;;;;;;;16.75;13.10;;;;;;;9.02;76.35;99115.25;5087453;28;20044;-59
2022/02/04 07:26:12;;;;;;;18.42;13.23;;;;;;;9.03;75.98;99127.41;5092480;28;20428;-60
2022/02/04 07:28:38;;;;;;;17.92;13.50;;;;;;;9.04;75.96;99113.38;5092643;28;20048;-60
2022/02/04 07:31:06;;;;;;;19.17;13.82;;;;;;;9.06;76.12;99116.75;5092424;28;20091;-60
2022/02/04 07:34:05;;;;;;;17.27;12.77;;;;;;;9.07;76.13;99114.03;5091786;28;20493;-65
2022/02/04 07:42:01;;;;;;;18.08;12.13;;;;;;;9.12;75.51;99113.72;5069603;28;20044;-60
2022/02/04 07:44:27;;;;;;;14.90;11.23;;;;;;;9.13;75.67;99100.50;5071177;28;20101;-61
2022/02/04 07:46:54;;;;;;;17.10;11.38;;;;;;;9.13;75.39;99108.38;5092051;28;20117;-60
2022/02/04 07:49:21;;;;;;;13.50;11.20;;;;;;;9.15;75.53;99126.69;5090935;28;20048;-60
2022/02/04 07:51:47;;;;;;;14.20;10.63;;;;;;;9.17;75.48;99108.22;5092263;28;20047;-60
2022/02/04 07:54:14;;;;;;;14.63;10.75;;;;;;;9.16;75.20;99102.09;5092190;28;20055;-62
2022/02/04 07:56:40;;;;;;;14.43;11.32;;;;;;;9.20;75.74;99095.72;5091580;28;20048;-61
2022/02/04 07:59:09;;;;;;;15.02;10.77;;;;;;;9.21;75.37;99094.81;5091592;28;20102;-63
2022/02/04 08:01:36;;;;;;;17.95;11.23;;;;;;;9.23;75.56;99089.44;5090360;28;20040;-61
2022/02/04 08:04:23;;;;;;;15.00;10.77;;;;;;;9.24;75.25;99089.34;5090192;28;20763;-60
2022/02/04 08:07:01;;;;;;;15.00;10.50;;;;;;;9.23;74.74;99082.41;5090079;28;20135;-59
2022/02/04 08:12:10;;;;;;;14.32;10.63;;;;;;;9.24;74.55;99072.75;5090280;28;20047;-61
2022/02/04 08:14:58;;;;;;;14.32;10.52;;;;;;;9.23;73.70;99069.28;5090142;28;20678;-61
2022/02/04 08:17:44;;;;;;;15.20;10.25;;;;;;;9.24;74.85;99063.06;5090500;28;20047;-61
2022/02/04 08:20:34;;;;;;;17.05;10.35;;;;;;;9.22;74.68;99067.59;5091556;28;20048;-62
2022/02/04 08:28:35;;;;;;;11.95;9.13;;;;;;;9.21;74.79;99072.94;5091390;28;20044;-61
2022/02/04 08:54:36;;;;;;;10.20;7.63;;;;;;;9.25;74.73;99025.41;5091191;28;20097;-62
2022/02/04 09:00:01;;;;;;;9.45;6.72;;;;;;;9.31;74.41;99020.69;5090912;28;20040;-60
2022/02/04 09:02:40;;;;;;;9.02;7.03;;;;;;;9.34;74.53;99016.06;5091034;28;20458;-59
2022/02/04 09:05:13;;;;;;;8.20;6.10;;;;;;;9.37;74.54;99004.53;5089798;28;20132;-60
2022/02/04 09:07:56;;;;;;;7.07;5.78;;;;;;;9.41;74.56;99005.19;5090815;28;20500;-62
2022/02/04 09:10:25;;;;;;;6.72;5.55;;;;;;;9.44;74.32;99007.59;5091102;28;20040;-61
2022/02/04 09:20:41;;;;;;;8.43;5.45;;;;;;;9.49;73.56;99022.13;5090620;28;20056;-61
2022/02/04 09:23:09;;;;;;;6.68;4.97;;;;;;;9.54;73.73;99021.00;5090651;28;20093;-61
2022/02/04 09:25:37;;;;;;;7.72;5.13;;;;;;;9.54;73.39;99021.84;5089595;28;20184;-61
2022/02/04 09:28:04;;;;;;;8.50;5.18;;;;;;;9.57;73.73;99020.81;5089448;28;20094;-59
2022/02/04 09:30:31;;;;;;;8.43;5.25;;;;;;;9.58;74.18;99019.84;5090335;28;20579;-59
2022/02/04 09:32:58;;;;;;;7.07;4.53;;;;;;;9.56;73.53;99013.84;5089522;28;20048;-63
2022/02/04 09:35:25;;;;;;;6.88;5.18;;;;;;;9.57;73.95;99015.53;5090748;28;20040;-59
2022/02/04 09:37:54;;;;;;;7.28;4.72;;;;;;;9.57;73.33;99008.50;5090524;28;20446;-61
2022/02/04 09:40:21;;;;;;;5.53;4.28;;;;;;;9.57;73.56;99026.06;5090178;28;20412;-60
2022/02/04 09:42:49;;;;;;;6.65;4.70;;;;;;;9.56;73.55;99019.09;5089038;28;20074;-63
2022/02/04 09:45:26;;;;;;;5.75;4.10;;;;;;;9.55;72.64;99018.28;5089569;28;20066;-60
2022/02/04 09:48:01;;;;;;;5.40;4.30;;;;;;;9.57;72.80;99007.66;5093390;28;20048;-61
2022/02/04 09:50:30;;;;;;;4.68;3.67;;;;;;;9.59;73.68;99005.75;5094449;28;20040;-60
2022/02/04 10:18:02;;;;;;;6.13;4.53;;;;;;;9.52;73.21;98998.28;5094234;28;20052;-60
2022/02/04 10:20:30;;;;;;;4.57;3.85;;;;;;;9.57;74.48;98978.75;5092528;28;20052;-60
2022/02/04 10:22:56;;;;;;;6.05;4.10;;;;;;;9.61;75.23;98967.13;5094159;28;20055;-60
2022/02/04 10:25:32;;;;;;;5.15;4.25;;;;;;;9.59;74.01;98975.09;5094082;28;20056;-61
2022/02/04 10:28:24;;;;;;;5.53;4.90;;;;;;;9.59;73.02;98958.47;5092717;28;20048;-60
2022/02/04 10:31:09;;;;;;;6.55;5.18;;;;;;;9.59;73.29;98975.09;5092375;28;20052;-62
2022/02/04 10:34:00;;;;;;;8.02;5.07;;;;;;;9.61;73.04;98964.47;5092635;28;20097;-60
2022/02/04 10:37:03;;;;;;;6.15;4.85;;;;;;;9.61;72.79;98953.97;5093923;28;20098;-60
2022/02/04 10:51:00;;;;;;;5.93;5.30;;;;;;;9.66;73.71;98917.72;5093432;28;20094;-60
2022/02/04 10:59:30;;;;;;;8.00;5.90;;;;;;;9.70;73.79;98916.56;5029175;28;20054;-60
2022/02/04 11:04:51;;;;;;;6.82;5.70;;;;;;;9.71;74.18;98913.00;5093504;28;20044;-59
2022/02/04 11:33:04;;;;;;;11.18;6.55;;;;;;;9.30;75.61;98858.81;5092650;28;20606;-59
2022/02/04 11:51:00;;;;;;;8.32;7.53;;;;;;;9.18;75.98;98834.19;5092232;28;20077;-61
2022/02/04 11:55:08;;;;;;;8.82;7.93;;;;;;;9.23;77.08;98797.94;5092152;28;20055;-59
2022/02/04 11:57:40;;;;;;;8.32;7.53;;;;;;;9.21;77.17;98800.72;5092296;28;20074;-62
2022/02/04 12:00:23;;;;;;;8.82;7.38;;;;;;;9.17;76.75;98807.09;5090683;28;20507;-60
2022/02/04 12:02:51;;;;;;;7.93;6.00;;;;;;;9.24;77.27;98789.97;5090851;28;20047;-61
2022/02/04 12:05:22;;;;;;;6.35;5.75;;;;;;;9.25;77.25;98791.69;5090737;28;20080;-60
2022/02/04 12:07:50;;;;;;;6.88;6.20;;;;;;;9.24;76.99;98779.47;5091988;28;20065;-60
2022/02/04 12:10:32;;;;;;;6.05;5.38;;;;;;;9.19;76.63;98781.56;5091428;28;20116;-60
2022/02/04 12:13:08;;;;;;;6.10;5.07;;;;;;;9.22;76.92;98776.13;5091841;28;20048;-59
2022/02/04 12:15:56;;;;;;;6.20;5.18;;;;;;;9.21;77.10;98777.06;5090807;28;20052;-59
2022/02/04 12:18:44;;;;;;;5.22;4.72;;;;;;;9.15;77.03;98769.59;5091192;28;20052;-60
2022/02/04 12:21:13;;;;;;;5.10;4.60;;;;;;;9.18;77.13;98758.03;5091176;28;20498;-60
2022/02/04 12:23:46;;;;;;;5.22;4.72;;;;;;;9.17;77.44;98757.22;5091634;28;20101;-61
2022/02/04 12:26:16;;;;;;;5.20;4.70;;;;;;;9.16;77.50;98745.00;5091774;28;20048;-60
2022/02/04 12:29:06;;;;;;;5.82;5.10;;;;;;;9.12;77.43;98740.91;5090618;28;20143;-60
2022/02/04 12:31:35;;;;;;;4.95;4.45;;;;;;;9.16;77.80;98731.06;5091362;28;20782;-60
2022/02/04 12:34:07;;;;;;;5.72;5.13;;;;;;;9.15;77.66;98734.63;5090200;28;20044;-61
2022/02/04 12:36:38;;;;;;;5.77;4.70;;;;;;;9.13;77.62;98722.44;5090474;28;20052;-60
2022/02/04 12:39:07;;;;;;;6.05;5.10;;;;;;;9.17;77.61;98711.72;5090377;28;20105;-61
2022/02/04 12:41:38;;;;;;;5.40;4.82;;;;;;;9.18;77.56;98718.66;5091436;28;20079;-60
2022/02/04 12:44:10;;;;;;;4.97;4.43;;;;;;;9.21;77.52;98714.06;5090027;28;20557;-59
2022/02/04 12:46:41;;;;;;;5.40;4.55;;;;;;;9.22;77.20;98707.84;5091698;28;20044;-60
2022/02/04 12:49:10;;;;;;;4.90;4.18;;;;;;;9.24;77.32;98719.06;5091417;28;20105;-60
2022/02/04 12:51:53;;;;;;;4.97;4.35;;;;;;;9.22;76.40;98728.00;5090104;28;20078;-60
2022/02/04 12:54:36;;;;;;;4.80;4.30;;;;;;;9.24;76.80;98699.88;5091350;28;20047;-59
2022/02/04 13:08:13;;;;;;;4.07;3.63;;;;;;;9.49;76.98;98712.13;5090999;28;20060;-59
2022/02/04 13:10:59;;;;;;;4.90;3.65;;;;;;;9.54;76.24;98700.47;5090689;28;20071;-60
2022/02/04 13:13:27;;;;;;;4.47;4.07;;;;;;;9.57;76.98;98685.31;5091165;28;20048;-61
2022/02/04 13:15:55;;;;;;;3.85;3.55;;;;;;;9.58;76.82;98679.16;5089975;28;20052;-61
2022/02/04 13:18:23;;;;;;;4.20;3.67;;;;;;;9.58;76.63;98671.25;5089765;28;20051;-60
2022/02/04 13:20:55;;;;;;;4.07;3.40;;;;;;;9.59;75.81;98672.09;5088941;28;20097;-60
2022/02/04 13:23:24;;;;;;;5.82;3.00;;;;;;;9.61;76.54;98664.94;5089612;28;20052;-60
2022/02/04 13:25:53;;;;;;;3.60;3.30;;;;;;;9.62;76.19;98662.22;5089565;28;20109;-60
2022/02/04 13:28:21;;;;;;;5.57;3.22;;;;;;;9.62;76.30;98662.22;5090953;28;20065;-61
2022/02/04 13:31:05;;;;;;;3.00;2.70;;;;;;;9.63;75.62;98656.00;5090657;28;20450;-60
2022/02/04 13:33:38;;;;;;;3.28;2.47;;;;;;;9.65;74.35;98642.78;5089467;28;20048;-60
2022/02/04 13:36:27;;;;;;;2.53;2.28;;;;;;;9.67;74.41;98640.84;5090674;28;20044;-59
2022/02/04 13:46:52;;;;;;;3.75;2.00;;;;;;;9.90;74.94;98627.84;5090640;28;20097;-60
2022/02/04 13:50:02;;;;;;;2.88;1.73;;;;;;;9.90;73.77;98622.59;5090378;28;20400;-60
2022/02/04 13:57:30;;;;;;;2.80;2.30;;;;;;;9.84;72.72;98618.63;5090526;28;20082;-61
2022/02/04 14:00:38;;;;;;;2.85;2.55;;;;;;;9.81;73.27;98613.59;5088958;28;20458;-59
2022/02/04 14:03:11;;;;;;;3.00;2.67;;;;;;;9.80;73.46;98605.81;5090479;28;20075;-60
2022/02/04 14:05:47;;;;;;;3.42;2.67;;;;;;;9.78;73.75;98595.41;5089468;28;20508;-62
2022/02/04 14:08:19;;;;;;;3.20;2.53;;;;;;;9.79;74.67;98610.22;5089490;28;20045;-60
2022/02/04 14:10:55;;;;;;;3.50;3.20;;;;;;;9.77;74.36;98591.13;5090307;28;20044;-60
2022/02/04 14:13:27;;;;;;;3.70;3.35;;;;;;;9.76;73.43;98590.25;5090459;28;20040;-59
2022/02/04 14:15:59;;;;;;;3.58;2.90;;;;;;;9.80;74.50;98584.78;5089193;28;20108;-59
2022/02/04 14:18:29;;;;;;;3.70;2.60;;;;;;;9.81;74.36;98584.69;5090263;28;20112;-60
2022/02/04 14:20:56;;;;;;;3.67;2.75;;;;;;;9.79;74.13;98576.06;5088750;28;20048;-60
2022/02/04 14:23:23;;;;;;;3.85;3.03;;;;;;;9.79;73.98;98570.78;5089151;28;20060;-61
2022/02/04 14:26:37;;;;;;;2.80;2.35;;;;;;;9.77;73.38;98580.59;5089087;28;20048;-60
2022/02/04 14:28:47;;;;;;;4.85;2.28;;;;;;;9.76;73.51;98574.50;5082016;28;20080;-60
2022/02/04 14:36:51;;;;;;;2.67;2.38;;;;;;;9.76;72.65;98548.22;5093940;28;20052;-61
2022/02/04 15:01:29;;;;;;;9.23;3.92;;;;;;;9.60;72.42;98503.84;5092905;28;20105;-60
2022/02/04 15:06:37;;;;;;;3.95;3.15;;;;;;;9.61;72.82;98502.06;5093224;28;20059;-64
2022/02/04 15:09:08;;;;;;;4.07;3.00;;;;;;;9.55;72.42;98505.13;5093582;28;20094;-60
2022/02/04 15:11:36;;;;;;;5.63;3.25;;;;;;;9.54;72.76;98495.56;5093562;28;20060;-60
2022/02/04 15:14:06;;;;;;;4.45;3.25;;;;;;;9.48;72.60;98483.72;5091730;28;20056;-58
2022/02/04 15:16:34;;;;;;;4.88;2.90;;;;;;;9.45;72.88;98490.03;5091748;28;20109;-60
2022/02/04 15:19:02;;;;;;;5.60;3.55;;;;;;;9.43;73.04;98484.06;5092574;28;20043;-59
2022/02/04 15:21:30;;;;;;;4.60;3.20;;;;;;;9.39;73.09;98477.38;5091423;28;20633;-59
2022/02/04 15:23:58;;;;;;;5.05;3.47;;;;;;;9.36;73.19;98477.56;5091839;28;20056;-60
2022/02/04 15:26:28;;;;;;;5.50;3.50;;;;;;;9.31;73.26;98461.31;5092429;28;20045;-59
2022/02/04 15:29:00;;;;;;;3.97;3.55;;;;;;;9.26;73.49;98472.16;5092832;28;20052;-60
2022/02/04 15:33:58;;;;;;;5.25;3.40;;;;;;;9.18;73.80;98459.59;5092770;28;20044;-60
2022/02/04 15:36:45;;;;;;;5.95;3.88;;;;;;;9.13;73.77;98466.97;5091497;28;20074;-60
2022/02/04 15:39:18;;;;;;;6.65;3.92;;;;;;;9.07;73.73;98462.97;5092351;28;20071;-60
2022/02/04 15:41:52;;;;;;;5.38;3.92;;;;;;;9.01;73.96;98454.72;5092822;28;20101;-60
2022/02/04 15:49:29;;;;;;;6.90;3.65;;;;;;;8.85;74.75;98454.00;5092315;28;20048;-61
2022/02/04 16:02:48;;;;;;;5.22;3.58;;;;;;;8.64;75.52;98440.63;5092256;28;20051;-61
2022/02/04 16:05:14;;;;;;;7.50;3.90;;;;;;;8.60;75.45;98447.03;5092064;28;20692;-60
2022/02/04 16:07:41;;;;;;;4.28;3.50;;;;;;;8.58;75.38;98435.81;5092292;28;20048;-61
2022/02/04 16:12:54;;;;;;;5.03;3.70;;;;;;;8.48;75.92;98439.03;5092173;28;20060;-60
2022/02/04 16:17:59;;;;;;;6.45;3.95;;;;;;;8.45;76.20;98428.75;5091292;28;20051;-59
2022/02/04 16:20:49;;;;;;;6.13;4.05;;;;;;;8.43;76.42;98417.56;5090306;28;20051;-61
2022/02/04 16:23:25;;;;;;;6.38;4.28;;;;;;;8.38;76.45;98409.19;5092102;28;20078;-59
2022/02/04 16:31:03;;;;;;;8.15;4.40;;;;;;;8.35;76.77;98417.25;5091348;28;20056;-62
2022/02/04 16:33:30;;;;;;;5.40;4.30;;;;;;;8.33;77.22;98430.47;5091710;28;20044;-59
2022/02/04 16:36:02;;;;;;;8.88;4.53;;;;;;;8.30;77.02;98429.84;5091531;28;20488;-59
2022/02/04 16:38:31;;;;;;;7.22;4.47;;;;;;;8.30;77.21;98505.88;5091909;28;20599;-59
2022/02/04 16:41:04;;;;;;;4.35;3.10;;;;;;;8.29;77.43;98512.88;5089945;28;20048;-61
2022/02/04 16:43:30;;;;;;;2.17;1.60;;;;;;;8.28;76.13;98536.59;5091769;28;20447;-60
2022/02/04 16:45:57;;;;;;;1.75;1.55;;;;;;;8.24;75.61;98537.72;5091249;28;20583;-59
2022/02/04 16:48:24;;;;;;;1.50;1.40;;;;;;;8.16;75.31;98575.81;5091498;28;20585;-60
2022/02/04 16:50:50;;;;;;;2.70;1.20;;;;;;;8.09;75.20;98592.88;5091389;28;20400;-61
2022/02/04 16:53:17;;;;;;;1.10;1.00;;;;;;;8.00;74.87;98625.75;5090168;28;20500;-59
2022/02/04 16:55:43;;;;;;;1.08;0.50;;;;;;;7.89;73.86;98626.44;5090114;28;20052;-59
2022/02/04 16:58:10;;;;;;;0.50;0.50;;;;;;;7.78;74.23;98642.84;5091044;28;20074;-61
2022/02/04 17:00:37;;;;;;;0.82;0.70;;;;;;;7.65;74.17;98655.88;5091213;28;20099;-60
2022/02/04 17:03:09;;;;;;;2.17;0.75;;;;;;;7.54;73.84;98666.16;5091412;28;20091;-60
2022/02/04 17:05:41;;;;;;;0.70;0.70;;;;;;;7.41;73.79;98666.94;5090782;28;20044;-62
2022/02/04 17:08:10;;;;;;;1.10;1.00;;;;;;;7.28;73.54;98684.31;5090227;28;20052;-62
2022/02/04 17:10:43;;;;;;;1.67;1.58;;;;;;;7.16;74.01;98709.47;5089674;28;20446;-59
2022/02/04 17:13:11;;;;;;;2.08;1.90;;;;;;;7.03;73.85;98709.38;5091293;28;20455;-62
2022/02/04 17:15:38;;;;;;;2.20;2.00;;;;;;;6.91;73.78;98722.25;5090548;28;20071;-60
2022/02/04 17:18:07;;;;;;;2.67;1.67;;;;;;;6.80;73.76;98753.41;5091141;28;20492;-61
2022/02/04 17:20:34;;;;;;;1.60;1.50;;;;;;;6.69;74.33;98758.41;5090574;28;20102;-61
2022/02/04 17:23:02;;;;;;;1.00;1.00;;;;;;;6.60;74.30;98765.00;5090909;28;20063;-61
2022/02/04 17:25:33;;;;;;;1.23;1.13;;;;;;;6.50;74.11;98782.97;5089353;28;20052;-62
2022/02/04 17:28:00;;;;;;;1.27;1.17;;;;;;;6.39;74.57;98794.88;5089970;28;20048;-59
2022/02/04 17:30:27;;;;;;;1.50;1.40;;;;;;;6.30;75.09;98798.00;5090577;28;20052;-60
2022/02/04 17:32:55;;;;;;;1.92;1.60;;;;;;;6.23;75.20;98804.47;5090743;28;20043;-59
2022/02/04 17:35:23;;;;;;;1.88;1.77;;;;;;;6.17;75.07;98804.84;5090572;28;20090;-61
2022/02/04 17:37:53;;;;;;;1.70;1.50;;;;;;;6.11;75.56;98822.53;5089434;28;20040;-59
2022/02/04 17:40:19;;;;;;;2.33;1.27;;;;;;;6.06;75.67;98834.97;5089126;28;20134;-59
2022/02/04 17:42:48;;;;;;;1.40;1.30;;;;;;;6.03;75.73;98839.50;5090798;28;20116;-61
2022/02/04 17:45:18;;;;;;;1.20;1.10;;;;;;;5.97;75.63;98851.09;5089463;28;20180;-62
2022/02/04 17:47:53;;;;;;;1.35;1.25;;;;;;;5.95;76.05;98859.03;5090650;28;20496;-69
2022/02/04 17:50:28;;;;;;;1.48;1.20;;;;;;;5.92;76.17;98874.88;5089309;28;20113;-62
2022/02/04 17:53:03;;;;;;;1.30;1.20;;;;;;;5.90;76.41;98886.34;5090940;28;20097;-59
2022/02/04 17:55:34;;;;;;;1.05;1.05;;;;;;;5.86;76.15;98886.47;5090673;28;20196;-60
2022/02/04 17:59:01;;;;;;;2.58;1.55;;;;;;;5.84;76.60;98890.09;5090803;28;20077;-68
2022/02/04 18:08:29;;;;;;;2.20;1.65;;;;;;;5.76;76.66;98937.50;5093965;28;20040;-61
2022/02/04 18:11:00;;;;;;;1.52;1.42;;;;;;;5.74;76.32;98934.97;5094047;28;20060;-60
2022/02/04 18:13:27;;;;;;;1.98;1.77;;;;;;;5.73;76.77;98943.69;5092880;28;20052;-59
2022/02/04 18:15:54;;;;;;;2.03;1.83;;;;;;;5.71;76.73;98963.84;5094418;28;20052;-59
2022/02/04 18:18:23;;;;;;;2.20;1.85;;;;;;;5.70;76.77;98967.38;5093257;28;20070;-60
2022/02/04 18:20:52;;;;;;;3.75;2.30;;;;;;;5.69;76.87;98983.13;5094288;28;20496;-60
2022/02/04 18:23:20;;;;;;;1.90;1.80;;;;;;;5.68;76.68;98986.66;5093687;28;20052;-59